sensor_id;sensor_type;location;lat;lon;timestamp;P1;durP1;ratioP1;P2;durP2;ratioP2
80257;SDS011;69565;37.974;23.708;2023-07-22T00:01:06;2.42;;;2.22;;
80257;SDS011;69565;37.974;23.708;2023-07-22T00:03:31;4.03;;;2.50;;
80257;SDS011;69565;37.974;23.708;2023-07-22T00:06:05;8.32;;;2.45;;
80257;SDS011;69565;37.974;23.708;2023-07-22T00:08:32;3.95;;;2.85;;
80257;SDS011;69565;37.974;23.708;2023-07-22T00:10:58;5.43;;;2.88;;
80257;SDS011;69565;37.974;23.708;2023-07-22T00:13:24;4.57;;;2.22;;
80257;SDS011;69565;37.974;23.708;2023-07-22T00:15:52;6.45;;;2.72;;
80257;SDS011;69565;37.974;23.708;2023-07-22T00:18:18;5.82;;;2.78;;
80257;SDS011;69565;37.974;23.708;2023-07-22T00:20:44;5.72;;;2.55;;
80257;SDS011;69565;37.974;23.708;2023-07-22T00:23:10;3.33;;;2.47;;
80257;SDS011;69565;37.974;23.708;2023-07-22T00:25:35;6.30;;;2.55;;
80257;SDS011;69565;37.974;23.708;2023-07-22T00:28:01;2.70;;;2.50;;
80257;SDS011;69565;37.974;23.708;2023-07-22T00:30:29;6.80;;;2.50;;
80257;SDS011;69565;37.974;23.708;2023-07-22T00:32:54;4.78;;;3.38;;
80257;SDS011;69565;37.974;23.708;2023-07-22T00:35:20;5.30;;;2.80;;
80257;SDS011;69565;37.974;23.708;2023-07-22T00:37:46;3.25;;;2.47;;
80257;SDS011;69565;37.974;23.708;2023-07-22T00:40:12;4.80;;;3.15;;
80257;SDS011;69565;37.974;23.708;2023-07-22T00:42:38;5.95;;;2.83;;
80257;SDS011;69565;37.974;23.708;2023-07-22T00:45:04;6.45;;;2.95;;
80257;SDS011;69565;37.974;23.708;2023-07-22T00:47:31;2.97;;;2.35;;
80257;SDS011;69565;37.974;23.708;2023-07-22T00:49:59;5.68;;;2.63;;
80257;SDS011;69565;37.974;23.708;2023-07-22T00:52:31;5.38;;;2.78;;
80257;SDS011;69565;37.974;23.708;2023-07-22T00:54:57;5.57;;;2.75;;
80257;SDS011;69565;37.974;23.708;2023-07-22T00:57:23;6.07;;;2.75;;
80257;SDS011;69565;37.974;23.708;2023-07-22T00:59:49;5.47;;;2.17;;
80257;SDS011;69565;37.974;23.708;2023-07-22T01:02:19;6.30;;;3.22;;
80257;SDS011;69565;37.974;23.708;2023-07-22T01:04:45;3.42;;;2.92;;
80257;SDS011;69565;37.974;23.708;2023-07-22T01:07:11;3.75;;;2.78;;
80257;SDS011;69565;37.974;23.708;2023-07-22T01:09:38;3.47;;;2.92;;
80257;SDS011;69565;37.974;23.708;2023-07-22T01:12:05;4.82;;;2.72;;
80257;SDS011;69565;37.974;23.708;2023-07-22T01:14:38;7.35;;;3.00;;
80257;SDS011;69565;37.974;23.708;2023-07-22T01:17:06;5.60;;;2.42;;
80257;SDS011;69565;37.974;23.708;2023-07-22T01:19:33;5.05;;;3.03;;
80257;SDS011;69565;37.974;23.708;2023-07-22T01:22:00;6.20;;;2.97;;
80257;SDS011;69565;37.974;23.708;2023-07-22T01:24:29;5.28;;;2.65;;
80257;SDS011;69565;37.974;23.708;2023-07-22T01:26:56;3.10;;;2.78;;
80257;SDS011;69565;37.974;23.708;2023-07-22T01:29:22;5.47;;;2.83;;
80257;SDS011;69565;37.974;23.708;2023-07-22T01:31:49;3.95;;;3.03;;
80257;SDS011;69565;37.974;23.708;2023-07-22T01:34:17;9.68;;;2.80;;
80257;SDS011;69565;37.974;23.708;2023-07-22T01:36:44;7.35;;;3.10;;
80257;SDS011;69565;37.974;23.708;2023-07-22T01:39:12;4.93;;;2.97;;
80257;SDS011;69565;37.974;23.708;2023-07-22T01:41:39;8.20;;;2.78;;
80257;SDS011;69565;37.974;23.708;2023-07-22T01:44:04;4.65;;;2.80;;
80257;SDS011;69565;37.974;23.708;2023-07-22T01:46:30;10.00;;;3.10;;
80257;SDS011;69565;37.974;23.708;2023-07-22T01:48:56;6.13;;;3.15;;
80257;SDS011;69565;37.974;23.708;2023-07-22T01:51:22;7.32;;;3.08;;
80257;SDS011;69565;37.974;23.708;2023-07-22T01:53:47;3.60;;;2.83;;
80257;SDS011;69565;37.974;23.708;2023-07-22T01:56:14;6.07;;;2.95;;
80257;SDS011;69565;37.974;23.708;2023-07-22T01:58:41;2.90;;;2.35;;
80257;SDS011;69565;37.974;23.708;2023-07-22T02:01:08;2.85;;;2.50;;
80257;SDS011;69565;37.974;23.708;2023-07-22T02:03:33;6.00;;;3.13;;
80257;SDS011;69565;37.974;23.708;2023-07-22T02:06:05;5.10;;;2.67;;
80257;SDS011;69565;37.974;23.708;2023-07-22T02:08:31;4.15;;;2.88;;
80257;SDS011;69565;37.974;23.708;2023-07-22T02:11:01;3.42;;;2.45;;
80257;SDS011;69565;37.974;23.708;2023-07-22T02:15:58;2.80;;;2.55;;
80257;SDS011;69565;37.974;23.708;2023-07-22T02:18:24;4.32;;;2.55;;
80257;SDS011;69565;37.974;23.708;2023-07-22T02:20:50;3.63;;;2.58;;
80257;SDS011;69565;37.974;23.708;2023-07-22T02:23:15;4.05;;;2.88;;
80257;SDS011;69565;37.974;23.708;2023-07-22T02:25:41;5.03;;;2.53;;
80257;SDS011;69565;37.974;23.708;2023-07-22T02:28:07;5.63;;;2.47;;
80257;SDS011;69565;37.974;23.708;2023-07-22T02:30:36;2.75;;;2.45;;
80257;SDS011;69565;37.974;23.708;2023-07-22T02:33:02;4.88;;;2.80;;
80257;SDS011;69565;37.974;23.708;2023-07-22T02:35:30;7.43;;;2.42;;
80257;SDS011;69565;37.974;23.708;2023-07-22T02:37:56;2.95;;;2.65;;
80257;SDS011;69565;37.974;23.708;2023-07-22T02:40:21;5.40;;;2.00;;
80257;SDS011;69565;37.974;23.708;2023-07-22T02:42:47;3.90;;;3.00;;
80257;SDS011;69565;37.974;23.708;2023-07-22T02:45:13;2.63;;;2.35;;
80257;SDS011;69565;37.974;23.708;2023-07-22T02:47:38;5.38;;;2.38;;
80257;SDS011;69565;37.974;23.708;2023-07-22T02:50:05;4.07;;;2.63;;
80257;SDS011;69565;37.974;23.708;2023-07-22T02:52:32;3.17;;;2.38;;
80257;SDS011;69565;37.974;23.708;2023-07-22T02:55:10;2.28;;;2.08;;
80257;SDS011;69565;37.974;23.708;2023-07-22T02:57:38;4.07;;;2.20;;
80257;SDS011;69565;37.974;23.708;2023-07-22T03:00:05;2.13;;;1.92;;
80257;SDS011;69565;37.974;23.708;2023-07-22T03:02:38;2.50;;;2.22;;
80257;SDS011;69565;37.974;23.708;2023-07-22T03:05:05;3.60;;;2.47;;
80257;SDS011;69565;37.974;23.708;2023-07-22T03:07:35;6.25;;;2.10;;
80257;SDS011;69565;37.974;23.708;2023-07-22T03:10:02;3.15;;;1.70;;
80257;SDS011;69565;37.974;23.708;2023-07-22T03:12:28;2.97;;;2.15;;
80257;SDS011;69565;37.974;23.708;2023-07-22T03:14:54;5.07;;;2.38;;
80257;SDS011;69565;37.974;23.708;2023-07-22T03:17:20;4.38;;;2.30;;
80257;SDS011;69565;37.974;23.708;2023-07-22T03:19:46;3.28;;;2.30;;
80257;SDS011;69565;37.974;23.708;2023-07-22T03:22:15;2.70;;;2.45;;
80257;SDS011;69565;37.974;23.708;2023-07-22T03:24:44;2.80;;;2.30;;
80257;SDS011;69565;37.974;23.708;2023-07-22T03:27:10;6.90;;;2.60;;
80257;SDS011;69565;37.974;23.708;2023-07-22T03:29:37;6.28;;;2.58;;
80257;SDS011;69565;37.974;23.708;2023-07-22T03:32:03;6.97;;;2.53;;
80257;SDS011;69565;37.974;23.708;2023-07-22T03:34:30;4.40;;;2.72;;
80257;SDS011;69565;37.974;23.708;2023-07-22T03:36:59;9.55;;;3.13;;
80257;SDS011;69565;37.974;23.708;2023-07-22T03:39:24;9.88;;;3.47;;
80257;SDS011;69565;37.974;23.708;2023-07-22T03:41:50;6.70;;;3.28;;
80257;SDS011;69565;37.974;23.708;2023-07-22T03:44:16;6.38;;;3.20;;
80257;SDS011;69565;37.974;23.708;2023-07-22T03:46:42;11.98;;;3.70;;
80257;SDS011;69565;37.974;23.708;2023-07-22T03:49:07;7.28;;;3.08;;
80257;SDS011;69565;37.974;23.708;2023-07-22T03:51:33;10.40;;;2.70;;
80257;SDS011;69565;37.974;23.708;2023-07-22T03:53:59;6.25;;;3.42;;
80257;SDS011;69565;37.974;23.708;2023-07-22T03:56:25;5.07;;;3.08;;
80257;SDS011;69565;37.974;23.708;2023-07-22T03:58:51;4.90;;;2.88;;
80257;SDS011;69565;37.974;23.708;2023-07-22T04:01:17;4.72;;;2.80;;
80257;SDS011;69565;37.974;23.708;2023-07-22T04:03:43;3.60;;;2.97;;
80257;SDS011;69565;37.974;23.708;2023-07-22T04:06:09;7.13;;;2.85;;
80257;SDS011;69565;37.974;23.708;2023-07-22T04:08:35;5.07;;;2.63;;
80257;SDS011;69565;37.974;23.708;2023-07-22T04:11:01;8.30;;;3.45;;
80257;SDS011;69565;37.974;23.708;2023-07-22T04:13:27;3.88;;;3.25;;
80257;SDS011;69565;37.974;23.708;2023-07-22T04:15:53;8.63;;;3.47;;
80257;SDS011;69565;37.974;23.708;2023-07-22T04:18:19;6.57;;;3.80;;
80257;SDS011;69565;37.974;23.708;2023-07-22T04:20:46;6.05;;;2.85;;
80257;SDS011;69565;37.974;23.708;2023-07-22T04:23:15;9.02;;;3.30;;
80257;SDS011;69565;37.974;23.708;2023-07-22T04:25:41;12.63;;;3.17;;
80257;SDS011;69565;37.974;23.708;2023-07-22T04:28:07;7.15;;;3.58;;
80257;SDS011;69565;37.974;23.708;2023-07-22T04:30:37;5.15;;;3.15;;
80257;SDS011;69565;37.974;23.708;2023-07-22T04:33:05;8.60;;;3.85;;
80257;SDS011;69565;37.974;23.708;2023-07-22T04:35:34;6.95;;;3.47;;
80257;SDS011;69565;37.974;23.708;2023-07-22T04:38:02;9.38;;;3.70;;
80257;SDS011;69565;37.974;23.708;2023-07-22T04:40:28;8.55;;;3.47;;
80257;SDS011;69565;37.974;23.708;2023-07-22T04:42:55;6.10;;;3.90;;
80257;SDS011;69565;37.974;23.708;2023-07-22T04:45:22;4.63;;;3.45;;
80257;SDS011;69565;37.974;23.708;2023-07-22T04:47:49;6.53;;;3.58;;
80257;SDS011;69565;37.974;23.708;2023-07-22T04:50:15;8.02;;;4.10;;
80257;SDS011;69565;37.974;23.708;2023-07-22T04:52:46;13.15;;;3.88;;
80257;SDS011;69565;37.974;23.708;2023-07-22T04:55:13;13.35;;;4.10;;
80257;SDS011;69565;37.974;23.708;2023-07-22T04:57:39;12.68;;;3.97;;
80257;SDS011;69565;37.974;23.708;2023-07-22T05:00:06;8.00;;;3.55;;
80257;SDS011;69565;37.974;23.708;2023-07-22T05:02:37;9.43;;;4.03;;
80257;SDS011;69565;37.974;23.708;2023-07-22T05:05:03;15.60;;;4.40;;
80257;SDS011;69565;37.974;23.708;2023-07-22T05:07:29;12.20;;;3.95;;
80257;SDS011;69565;37.974;23.708;2023-07-22T05:09:55;9.85;;;3.88;;
80257;SDS011;69565;37.974;23.708;2023-07-22T05:12:21;10.13;;;4.75;;
80257;SDS011;69565;37.974;23.708;2023-07-22T05:14:46;10.38;;;4.32;;
80257;SDS011;69565;37.974;23.708;2023-07-22T05:17:12;9.30;;;4.25;;
80257;SDS011;69565;37.974;23.708;2023-07-22T05:19:38;9.93;;;4.55;;
80257;SDS011;69565;37.974;23.708;2023-07-22T05:22:04;13.45;;;4.85;;
80257;SDS011;69565;37.974;23.708;2023-07-22T05:24:30;11.88;;;4.30;;
80257;SDS011;69565;37.974;23.708;2023-07-22T05:26:58;5.95;;;3.72;;
80257;SDS011;69565;37.974;23.708;2023-07-22T05:29:24;9.23;;;4.55;;
80257;SDS011;69565;37.974;23.708;2023-07-22T05:31:50;11.70;;;4.50;;
80257;SDS011;69565;37.974;23.708;2023-07-22T05:34:16;8.52;;;4.32;;
80257;SDS011;69565;37.974;23.708;2023-07-22T05:36:42;11.90;;;4.32;;
80257;SDS011;69565;37.974;23.708;2023-07-22T05:39:07;6.40;;;4.28;;
80257;SDS011;69565;37.974;23.708;2023-07-22T05:41:33;6.32;;;3.85;;
80257;SDS011;69565;37.974;23.708;2023-07-22T05:43:59;7.28;;;4.43;;
80257;SDS011;69565;37.974;23.708;2023-07-22T05:46:25;8.45;;;4.60;;
80257;SDS011;69565;37.974;23.708;2023-07-22T05:48:50;11.80;;;4.18;;
80257;SDS011;69565;37.974;23.708;2023-07-22T05:51:19;6.88;;;4.20;;
80257;SDS011;69565;37.974;23.708;2023-07-22T05:53:48;8.25;;;4.18;;
80257;SDS011;69565;37.974;23.708;2023-07-22T05:56:14;9.52;;;3.90;;
80257;SDS011;69565;37.974;23.708;2023-07-22T05:58:39;6.18;;;3.63;;
80257;SDS011;69565;37.974;23.708;2023-07-22T06:01:05;9.70;;;3.85;;
80257;SDS011;69565;37.974;23.708;2023-07-22T06:03:31;8.65;;;4.43;;
80257;SDS011;69565;37.974;23.708;2023-07-22T06:05:56;5.55;;;3.80;;
80257;SDS011;69565;37.974;23.708;2023-07-22T06:08:22;7.80;;;4.38;;
80257;SDS011;69565;37.974;23.708;2023-07-22T06:10:48;5.53;;;3.78;;
80257;SDS011;69565;37.974;23.708;2023-07-22T06:13:13;4.80;;;4.05;;
80257;SDS011;69565;37.974;23.708;2023-07-22T06:15:39;9.43;;;3.58;;
80257;SDS011;69565;37.974;23.708;2023-07-22T06:18:05;11.57;;;3.97;;
80257;SDS011;69565;37.974;23.708;2023-07-22T06:20:34;10.55;;;4.05;;
80257;SDS011;69565;37.974;23.708;2023-07-22T06:23:02;5.97;;;3.92;;
80257;SDS011;69565;37.974;23.708;2023-07-22T06:25:28;8.93;;;3.80;;
80257;SDS011;69565;37.974;23.708;2023-07-22T06:27:56;6.55;;;3.83;;
80257;SDS011;69565;37.974;23.708;2023-07-22T06:30:22;4.07;;;3.78;;
80257;SDS011;69565;37.974;23.708;2023-07-22T06:32:47;5.93;;;3.78;;
80257;SDS011;69565;37.974;23.708;2023-07-22T06:35:13;5.10;;;3.47;;
80257;SDS011;69565;37.974;23.708;2023-07-22T06:37:39;4.05;;;3.60;;
80257;SDS011;69565;37.974;23.708;2023-07-22T06:40:05;5.25;;;3.10;;
80257;SDS011;69565;37.974;23.708;2023-07-22T06:42:31;4.65;;;3.78;;
80257;SDS011;69565;37.974;23.708;2023-07-22T06:44:57;6.72;;;3.65;;
80257;SDS011;69565;37.974;23.708;2023-07-22T06:47:25;4.90;;;4.25;;
80257;SDS011;69565;37.974;23.708;2023-07-22T06:49:51;6.65;;;4.88;;
80257;SDS011;69565;37.974;23.708;2023-07-22T06:52:16;5.93;;;4.43;;
80257;SDS011;69565;37.974;23.708;2023-07-22T06:54:42;4.40;;;4.00;;
80257;SDS011;69565;37.974;23.708;2023-07-22T06:57:08;5.03;;;4.25;;
80257;SDS011;69565;37.974;23.708;2023-07-22T06:59:34;7.32;;;4.95;;
80257;SDS011;69565;37.974;23.708;2023-07-22T07:02:03;5.75;;;4.68;;
80257;SDS011;69565;37.974;23.708;2023-07-22T07:04:32;4.35;;;4.05;;
80257;SDS011;69565;37.974;23.708;2023-07-22T07:06:58;5.88;;;4.63;;
80257;SDS011;69565;37.974;23.708;2023-07-22T07:09:24;5.78;;;5.25;;
80257;SDS011;69565;37.974;23.708;2023-07-22T07:11:50;13.90;;;5.90;;
80257;SDS011;69565;37.974;23.708;2023-07-22T07:14:16;13.55;;;5.93;;
80257;SDS011;69565;37.974;23.708;2023-07-22T07:16:43;9.20;;;5.75;;
80257;SDS011;69565;37.974;23.708;2023-07-22T07:19:12;6.72;;;6.03;;
80257;SDS011;69565;37.974;23.708;2023-07-22T07:21:38;8.90;;;5.22;;
80257;SDS011;69565;37.974;23.708;2023-07-22T07:24:04;6.68;;;5.70;;
80257;SDS011;69565;37.974;23.708;2023-07-22T07:26:30;9.60;;;5.22;;
80257;SDS011;69565;37.974;23.708;2023-07-22T07:28:58;7.63;;;6.05;;
80257;SDS011;69565;37.974;23.708;2023-07-22T07:31:23;17.13;;;5.25;;
80257;SDS011;69565;37.974;23.708;2023-07-22T07:33:50;9.40;;;5.90;;
80257;SDS011;69565;37.974;23.708;2023-07-22T07:36:20;7.55;;;5.53;;
80257;SDS011;69565;37.974;23.708;2023-07-22T07:38:46;9.35;;;6.28;;
80257;SDS011;69565;37.974;23.708;2023-07-22T07:41:12;8.90;;;6.30;;
80257;SDS011;69565;37.974;23.708;2023-07-22T07:43:39;10.05;;;5.80;;
80257;SDS011;69565;37.974;23.708;2023-07-22T07:46:24;6.50;;;5.90;;
80257;SDS011;69565;37.974;23.708;2023-07-22T07:48:52;8.65;;;5.68;;
80257;SDS011;69565;37.974;23.708;2023-07-22T07:51:23;7.85;;;5.68;;
80257;SDS011;69565;37.974;23.708;2023-07-22T07:53:51;7.13;;;5.38;;
80257;SDS011;69565;37.974;23.708;2023-07-22T07:56:17;9.48;;;5.30;;
80257;SDS011;69565;37.974;23.708;2023-07-22T07:58:44;6.88;;;5.55;;
80257;SDS011;69565;37.974;23.708;2023-07-22T08:01:11;11.10;;;5.90;;
80257;SDS011;69565;37.974;23.708;2023-07-22T08:03:37;9.02;;;5.70;;
80257;SDS011;69565;37.974;23.708;2023-07-22T08:06:04;8.55;;;5.82;;
80257;SDS011;69565;37.974;23.708;2023-07-22T08:08:29;12.27;;;5.57;;
80257;SDS011;69565;37.974;23.708;2023-07-22T08:10:59;8.13;;;5.60;;
80257;SDS011;69565;37.974;23.708;2023-07-22T08:13:25;10.85;;;5.53;;
80257;SDS011;69565;37.974;23.708;2023-07-22T08:15:52;6.55;;;4.95;;
80257;SDS011;69565;37.974;23.708;2023-07-22T08:18:27;7.97;;;5.53;;
80257;SDS011;69565;37.974;23.708;2023-07-22T08:20:53;8.23;;;4.72;;
80257;SDS011;69565;37.974;23.708;2023-07-22T08:23:19;8.07;;;5.53;;
80257;SDS011;69565;37.974;23.708;2023-07-22T08:25:45;8.27;;;5.38;;
80257;SDS011;69565;37.974;23.708;2023-07-22T08:28:12;8.02;;;4.47;;
80257;SDS011;69565;37.974;23.708;2023-07-22T08:30:37;8.18;;;5.47;;
80257;SDS011;69565;37.974;23.708;2023-07-22T08:33:05;7.13;;;5.28;;
80257;SDS011;69565;37.974;23.708;2023-07-22T08:35:35;6.22;;;5.40;;
80257;SDS011;69565;37.974;23.708;2023-07-22T08:38:01;10.77;;;5.05;;
80257;SDS011;69565;37.974;23.708;2023-07-22T08:40:37;6.80;;;5.28;;
80257;SDS011;69565;37.974;23.708;2023-07-22T08:43:06;10.18;;;4.93;;
80257;SDS011;69565;37.974;23.708;2023-07-22T08:45:34;8.30;;;4.88;;
80257;SDS011;69565;37.974;23.708;2023-07-22T08:48:06;9.25;;;4.82;;
80257;SDS011;69565;37.974;23.708;2023-07-22T08:50:36;9.68;;;5.40;;
80257;SDS011;69565;37.974;23.708;2023-07-22T08:53:12;7.82;;;5.68;;
80257;SDS011;69565;37.974;23.708;2023-07-22T08:55:38;8.80;;;4.68;;
80257;SDS011;69565;37.974;23.708;2023-07-22T08:58:07;7.80;;;5.25;;
80257;SDS011;69565;37.974;23.708;2023-07-22T09:00:34;8.70;;;5.13;;
80257;SDS011;69565;37.974;23.708;2023-07-22T09:03:01;6.20;;;4.55;;
80257;SDS011;69565;37.974;23.708;2023-07-22T09:05:27;9.88;;;5.15;;
80257;SDS011;69565;37.974;23.708;2023-07-22T09:07:54;8.95;;;5.25;;
80257;SDS011;69565;37.974;23.708;2023-07-22T09:10:21;7.47;;;5.65;;
80257;SDS011;69565;37.974;23.708;2023-07-22T09:12:49;6.00;;;4.80;;
80257;SDS011;69565;37.974;23.708;2023-07-22T09:15:16;9.45;;;5.40;;
80257;SDS011;69565;37.974;23.708;2023-07-22T09:17:43;6.97;;;5.30;;
80257;SDS011;69565;37.974;23.708;2023-07-22T09:20:11;4.93;;;4.00;;
80257;SDS011;69565;37.974;23.708;2023-07-22T09:22:44;11.20;;;4.38;;
80257;SDS011;69565;37.974;23.708;2023-07-22T09:25:17;8.30;;;4.45;;
80257;SDS011;69565;37.974;23.708;2023-07-22T09:27:51;7.80;;;5.05;;
80257;SDS011;69565;37.974;23.708;2023-07-22T09:32:49;9.15;;;4.95;;
80257;SDS011;69565;37.974;23.708;2023-07-22T09:35:15;7.97;;;4.68;;
80257;SDS011;69565;37.974;23.708;2023-07-22T09:37:43;6.53;;;4.72;;
80257;SDS011;69565;37.974;23.708;2023-07-22T09:40:16;11.27;;;5.22;;
80257;SDS011;69565;37.974;23.708;2023-07-22T09:42:48;5.57;;;4.30;;
80257;SDS011;69565;37.974;23.708;2023-07-22T09:45:21;12.77;;;4.95;;
80257;SDS011;69565;37.974;23.708;2023-07-22T09:47:51;6.93;;;4.65;;
80257;SDS011;69565;37.974;23.708;2023-07-22T09:52:49;5.40;;;4.03;;
80257;SDS011;69565;37.974;23.708;2023-07-22T09:55:18;6.60;;;4.85;;
80257;SDS011;69565;37.974;23.708;2023-07-22T10:00:25;5.30;;;4.50;;
80257;SDS011;69565;37.974;23.708;2023-07-22T10:02:58;7.47;;;4.72;;
80257;SDS011;69565;37.974;23.708;2023-07-22T10:05:25;8.38;;;4.43;;
80257;SDS011;69565;37.974;23.708;2023-07-22T10:07:53;12.52;;;5.18;;
80257;SDS011;69565;37.974;23.708;2023-07-22T10:10:27;9.27;;;5.13;;
80257;SDS011;69565;37.974;23.708;2023-07-22T10:13:03;6.22;;;4.90;;
80257;SDS011;69565;37.974;23.708;2023-07-22T10:15:31;10.07;;;4.97;;
80257;SDS011;69565;37.974;23.708;2023-07-22T10:20:27;11.13;;;4.75;;
80257;SDS011;69565;37.974;23.708;2023-07-22T10:22:54;5.65;;;4.40;;
80257;SDS011;69565;37.974;23.708;2023-07-22T10:25:21;6.70;;;4.22;;
80257;SDS011;69565;37.974;23.708;2023-07-22T10:27:51;7.15;;;4.38;;
80257;SDS011;69565;37.974;23.708;2023-07-22T10:30:18;11.73;;;4.45;;
80257;SDS011;69565;37.974;23.708;2023-07-22T10:32:48;11.25;;;4.30;;
80257;SDS011;69565;37.974;23.708;2023-07-22T10:35:17;10.48;;;4.75;;
80257;SDS011;69565;37.974;23.708;2023-07-22T10:37:44;12.38;;;4.28;;
80257;SDS011;69565;37.974;23.708;2023-07-22T10:42:56;10.02;;;4.68;;
80257;SDS011;69565;37.974;23.708;2023-07-22T10:45:31;6.82;;;3.88;;
80257;SDS011;69565;37.974;23.708;2023-07-22T10:48:08;10.80;;;4.45;;
80257;SDS011;69565;37.974;23.708;2023-07-22T10:50:45;9.93;;;4.75;;
80257;SDS011;69565;37.974;23.708;2023-07-22T11:04:07;5.88;;;4.05;;
80257;SDS011;69565;37.974;23.708;2023-07-22T11:06:33;10.25;;;4.70;;
80257;SDS011;69565;37.974;23.708;2023-07-22T11:09:00;10.32;;;4.40;;
80257;SDS011;69565;37.974;23.708;2023-07-22T11:16:41;10.07;;;3.70;;
80257;SDS011;69565;37.974;23.708;2023-07-22T11:19:08;10.70;;;3.92;;
80257;SDS011;69565;37.974;23.708;2023-07-22T11:21:33;9.77;;;4.30;;
80257;SDS011;69565;37.974;23.708;2023-07-22T11:23:59;11.60;;;4.55;;
80257;SDS011;69565;37.974;23.708;2023-07-22T11:26:25;5.40;;;3.90;;
80257;SDS011;69565;37.974;23.708;2023-07-22T11:28:50;8.07;;;4.22;;
80257;SDS011;69565;37.974;23.708;2023-07-22T11:31:18;10.55;;;3.78;;
80257;SDS011;69565;37.974;23.708;2023-07-22T11:33:43;7.50;;;3.78;;
80257;SDS011;69565;37.974;23.708;2023-07-22T11:36:11;13.85;;;3.95;;
80257;SDS011;69565;37.974;23.708;2023-07-22T11:38:38;8.27;;;4.13;;
80257;SDS011;69565;37.974;23.708;2023-07-22T11:41:04;17.27;;;4.13;;
80257;SDS011;69565;37.974;23.708;2023-07-22T11:43:30;8.02;;;3.63;;
80257;SDS011;69565;37.974;23.708;2023-07-22T11:45:56;10.88;;;3.72;;
80257;SDS011;69565;37.974;23.708;2023-07-22T11:48:22;9.15;;;3.63;;
80257;SDS011;69565;37.974;23.708;2023-07-22T11:50:48;6.55;;;4.22;;
80257;SDS011;69565;37.974;23.708;2023-07-22T11:53:14;7.15;;;3.80;;
80257;SDS011;69565;37.974;23.708;2023-07-22T11:55:40;11.25;;;4.13;;
80257;SDS011;69565;37.974;23.708;2023-07-22T11:58:06;9.32;;;3.88;;
80257;SDS011;69565;37.974;23.708;2023-07-22T12:00:33;12.60;;;3.92;;
80257;SDS011;69565;37.974;23.708;2023-07-22T12:03:04;10.38;;;3.88;;
80257;SDS011;69565;37.974;23.708;2023-07-22T12:05:31;7.28;;;3.58;;
80257;SDS011;69565;37.974;23.708;2023-07-22T12:08:03;10.80;;;4.30;;
80257;SDS011;69565;37.974;23.708;2023-07-22T12:10:29;9.27;;;4.03;;
80257;SDS011;69565;37.974;23.708;2023-07-22T12:12:54;14.88;;;3.88;;
80257;SDS011;69565;37.974;23.708;2023-07-22T12:15:26;7.28;;;3.53;;
80257;SDS011;69565;37.974;23.708;2023-07-22T12:17:55;9.38;;;4.47;;
80257;SDS011;69565;37.974;23.708;2023-07-22T12:20:28;13.50;;;4.60;;
80257;SDS011;69565;37.974;23.708;2023-07-22T12:22:55;8.95;;;3.70;;
80257;SDS011;69565;37.974;23.708;2023-07-22T12:25:22;9.45;;;3.78;;
80257;SDS011;69565;37.974;23.708;2023-07-22T12:27:48;11.93;;;4.18;;
80257;SDS011;69565;37.974;23.708;2023-07-22T12:30:14;8.65;;;3.40;;
80257;SDS011;69565;37.974;23.708;2023-07-22T12:32:41;7.72;;;3.92;;
80257;SDS011;69565;37.974;23.708;2023-07-22T12:35:07;13.27;;;3.70;;
80257;SDS011;69565;37.974;23.708;2023-07-22T12:37:33;8.90;;;3.05;;
80257;SDS011;69565;37.974;23.708;2023-07-22T12:39:59;14.50;;;3.20;;
80257;SDS011;69565;37.974;23.708;2023-07-22T12:42:25;7.93;;;4.28;;
80257;SDS011;69565;37.974;23.708;2023-07-22T12:44:51;7.20;;;3.65;;
80257;SDS011;69565;37.974;23.708;2023-07-22T12:47:17;9.23;;;3.55;;
80257;SDS011;69565;37.974;23.708;2023-07-22T12:49:42;8.88;;;3.05;;
80257;SDS011;69565;37.974;23.708;2023-07-22T12:52:08;5.07;;;3.20;;
80257;SDS011;69565;37.974;23.708;2023-07-22T12:54:35;9.05;;;3.28;;
80257;SDS011;69565;37.974;23.708;2023-07-22T12:57:01;8.82;;;3.17;;
80257;SDS011;69565;37.974;23.708;2023-07-22T12:59:27;11.50;;;3.03;;
80257;SDS011;69565;37.974;23.708;2023-07-22T13:01:53;6.88;;;3.33;;
80257;SDS011;69565;37.974;23.708;2023-07-22T13:04:19;4.05;;;2.90;;
80257;SDS011;69565;37.974;23.708;2023-07-22T13:06:44;8.05;;;3.63;;
80257;SDS011;69565;37.974;23.708;2023-07-22T13:09:10;10.45;;;4.00;;
80257;SDS011;69565;37.974;23.708;2023-07-22T13:11:36;6.03;;;3.63;;
80257;SDS011;69565;37.974;23.708;2023-07-22T13:14:09;6.72;;;3.53;;
80257;SDS011;69565;37.974;23.708;2023-07-22T13:16:34;11.45;;;3.60;;
80257;SDS011;69565;37.974;23.708;2023-07-22T13:19:02;15.93;;;2.85;;
80257;SDS011;69565;37.974;23.708;2023-07-22T13:21:28;10.15;;;3.38;;
80257;SDS011;69565;37.974;23.708;2023-07-22T13:23:54;6.63;;;3.30;;
80257;SDS011;69565;37.974;23.708;2023-07-22T13:26:20;9.05;;;3.72;;
80257;SDS011;69565;37.974;23.708;2023-07-22T13:28:46;6.18;;;2.80;;
80257;SDS011;69565;37.974;23.708;2023-07-22T13:31:12;7.50;;;3.50;;
80257;SDS011;69565;37.974;23.708;2023-07-22T13:33:37;12.00;;;3.83;;
80257;SDS011;69565;37.974;23.708;2023-07-22T13:36:03;9.35;;;3.80;;
80257;SDS011;69565;37.974;23.708;2023-07-22T13:38:29;6.93;;;3.10;;
80257;SDS011;69565;37.974;23.708;2023-07-22T13:40:54;6.43;;;2.97;;
80257;SDS011;69565;37.974;23.708;2023-07-22T13:43:20;8.13;;;3.33;;
80257;SDS011;69565;37.974;23.708;2023-07-22T13:45:46;10.68;;;3.58;;
80257;SDS011;69565;37.974;23.708;2023-07-22T13:48:12;7.32;;;3.33;;
80257;SDS011;69565;37.974;23.708;2023-07-22T13:50:38;7.75;;;3.67;;
80257;SDS011;69565;37.974;23.708;2023-07-22T13:53:04;8.15;;;3.17;;
80257;SDS011;69565;37.974;23.708;2023-07-22T13:55:30;6.88;;;3.10;;
80257;SDS011;69565;37.974;23.708;2023-07-22T13:57:56;9.85;;;3.72;;
80257;SDS011;69565;37.974;23.708;2023-07-22T14:00:21;5.55;;;3.20;;
80257;SDS011;69565;37.974;23.708;2023-07-22T14:02:47;6.82;;;4.00;;
80257;SDS011;69565;37.974;23.708;2023-07-22T14:05:13;6.53;;;3.30;;
80257;SDS011;69565;37.974;23.708;2023-07-22T14:07:39;5.93;;;3.40;;
80257;SDS011;69565;37.974;23.708;2023-07-22T14:10:05;11.60;;;3.65;;
80257;SDS011;69565;37.974;23.708;2023-07-22T14:12:31;10.00;;;3.45;;
80257;SDS011;69565;37.974;23.708;2023-07-22T14:14:57;7.93;;;3.15;;
80257;SDS011;69565;37.974;23.708;2023-07-22T14:17:22;6.78;;;3.40;;
80257;SDS011;69565;37.974;23.708;2023-07-22T14:19:48;9.23;;;3.20;;
80257;SDS011;69565;37.974;23.708;2023-07-22T14:22:14;8.05;;;3.72;;
80257;SDS011;69565;37.974;23.708;2023-07-22T14:24:39;8.10;;;3.53;;
80257;SDS011;69565;37.974;23.708;2023-07-22T14:27:08;5.70;;;3.60;;
80257;SDS011;69565;37.974;23.708;2023-07-22T14:29:33;5.25;;;3.58;;
80257;SDS011;69565;37.974;23.708;2023-07-22T14:32:01;7.72;;;3.58;;
80257;SDS011;69565;37.974;23.708;2023-07-22T14:34:35;13.07;;;3.58;;
80257;SDS011;69565;37.974;23.708;2023-07-22T14:37:04;7.70;;;2.95;;
80257;SDS011;69565;37.974;23.708;2023-07-22T14:39:30;9.88;;;3.28;;
80257;SDS011;69565;37.974;23.708;2023-07-22T14:41:55;5.00;;;2.95;;
80257;SDS011;69565;37.974;23.708;2023-07-22T14:44:21;9.35;;;3.55;;
80257;SDS011;69565;37.974;23.708;2023-07-22T14:46:47;6.00;;;3.30;;
80257;SDS011;69565;37.974;23.708;2023-07-22T14:49:12;6.70;;;3.20;;
80257;SDS011;69565;37.974;23.708;2023-07-22T14:51:38;5.10;;;3.35;;
80257;SDS011;69565;37.974;23.708;2023-07-22T14:54:04;8.15;;;2.97;;
80257;SDS011;69565;37.974;23.708;2023-07-22T14:56:30;10.55;;;3.35;;
80257;SDS011;69565;37.974;23.708;2023-07-22T14:58:55;8.55;;;3.35;;
80257;SDS011;69565;37.974;23.708;2023-07-22T15:01:21;7.07;;;3.55;;